createdAt,value
2023-03-12T00:00:13.903Z,98331.59
2023-03-12T00:02:41.279Z,98333.44
2023-03-12T00:05:08.813Z,98338.47
2023-03-12T00:07:36.814Z,98345.16
2023-03-12T00:10:05.291Z,98342.50
2023-03-12T00:12:32.891Z,98351.47
2023-03-12T00:15:00.240Z,98353.34
2023-03-12T00:17:29.311Z,98356.50
2023-03-12T00:19:56.566Z,98359.94
2023-03-12T00:22:24.086Z,98367.91
2023-03-12T00:24:55.548Z,98360.53
2023-03-12T00:27:23.476Z,98372.72
2023-03-12T00:29:51.025Z,98363.22
2023-03-12T00:32:18.434Z,98377.81
2023-03-12T00:34:50.548Z,98386.84
2023-03-12T00:37:17.943Z,98391.88
2023-03-12T00:39:45.220Z,98404.09
2023-03-12T00:42:12.738Z,98400.38
2023-03-12T00:44:40.137Z,98398.53
2023-03-12T00:47:07.676Z,98401.44
2023-03-12T00:49:35.261Z,98413.94
2023-03-12T00:52:02.820Z,98410.47
2023-03-12T00:54:30.070Z,98418.44
2023-03-12T00:56:57.539Z,98426.47
2023-03-12T00:59:25.148Z,98425.44
2023-03-12T01:01:52.441Z,98434.75
2023-03-12T01:04:19.714Z,98432.66
2023-03-12T01:06:47.045Z,98441.75
2023-03-12T01:09:14.300Z,98445.47
2023-03-12T01:11:41.775Z,98446.53
2023-03-12T01:14:09.653Z,98442.03
2023-03-12T01:16:37.023Z,98449.50
2023-03-12T01:19:05.029Z,98449.75
2023-03-12T01:21:32.828Z,98456.41
2023-03-12T01:24:00.251Z,98459.06
2023-03-12T01:26:27.774Z,98462.50
2023-03-12T01:28:55.826Z,98463.06
2023-03-12T01:31:23.397Z,98462.25
2023-03-12T01:33:51.972Z,98467.81
2023-03-12T01:36:20.778Z,98468.38
2023-03-12T01:38:48.301Z,98473.69
2023-03-12T01:41:15.604Z,98476.06
2023-03-12T01:43:43.510Z,98480.84
2023-03-12T01:46:17.401Z,98493.06
2023-03-12T01:48:57.346Z,98489.94
2023-03-12T01:51:27.352Z,98495.53
2023-03-12T01:53:57.540Z,98500.31
2023-03-12T01:56:27.240Z,98497.91
2023-03-12T01:58:56.438Z,98508.50
2023-03-12T02:01:25.451Z,98515.69
2023-03-12T02:03:55.747Z,98522.34
2023-03-12T02:06:33.564Z,98517.53
2023-03-12T02:09:01.925Z,98515.97
2023-03-12T02:11:30.132Z,98517.81
2023-03-12T02:13:57.836Z,98519.69
2023-03-12T02:16:26.986Z,98517.31
2023-03-12T02:18:55.493Z,98530.31
2023-03-12T02:21:30.880Z,98526.88
2023-03-12T02:23:58.181Z,98532.97
2023-03-12T02:26:28.683Z,98535.34
2023-03-12T02:29:01.255Z,98542.47
2023-03-12T02:31:32.031Z,98534.50
2023-03-12T02:34:01.000Z,98533.72
2023-03-12T02:36:28.429Z,98540.91
2023-03-12T02:38:56.904Z,98554.19
2023-03-12T02:41:27.540Z,98555.47
2023-03-12T02:44:06.296Z,98559.72
2023-03-12T02:46:36.477Z,98563.69
2023-03-12T02:49:04.105Z,98572.44
2023-03-12T02:51:31.622Z,98577.22
2023-03-12T02:53:58.984Z,98588.31
2023-03-12T02:56:26.969Z,98584.44
2023-03-12T02:58:54.577Z,98583.16
2023-03-12T03:01:23.294Z,98578.91
2023-03-12T03:03:50.777Z,98578.44
2023-03-12T03:06:18.461Z,98583.09
2023-03-12T03:08:45.798Z,98576.31
2023-03-12T03:11:13.335Z,98588.56
2023-03-12T03:13:41.399Z,98591.50
2023-03-12T03:16:08.966Z,98588.31
2023-03-12T03:18:36.352Z,98588.91
2023-03-12T03:21:08.262Z,98595.81
2023-03-12T03:23:37.455Z,98596.59
2023-03-12T03:26:04.934Z,98602.94
2023-03-12T03:28:32.448Z,98601.44
2023-03-12T03:31:02.083Z,98610.50
2023-03-12T03:33:34.202Z,98614.22
2023-03-12T03:36:02.427Z,98619.56
2023-03-12T03:38:32.503Z,98618.53
2023-03-12T03:41:00.164Z,98621.56
2023-03-12T03:43:27.941Z,98620.28
2023-03-12T03:46:03.088Z,98613.06
2023-03-12T03:48:33.942Z,98618.50
2023-03-12T03:51:02.344Z,98621.69
2023-03-12T03:53:32.826Z,98620.81
2023-03-12T03:56:05.467Z,98629.72
2023-03-12T03:58:33.225Z,98625.22
2023-03-12T04:01:00.673Z,98627.28
2023-03-12T04:03:28.123Z,98626.56
2023-03-12T04:05:57.070Z,98624.94
2023-03-12T04:08:24.514Z,98631.16
2023-03-12T04:13:37.476Z,98634.38
2023-03-12T04:16:05.627Z,98647.69
2023-03-12T04:18:33.174Z,98638.19
2023-03-12T04:21:01.457Z,98648.00
2023-03-12T04:23:28.891Z,98650.28
2023-03-12T04:25:56.802Z,98644.81
2023-03-12T04:28:24.137Z,98645.69
2023-03-12T04:30:55.507Z,98648.09
2023-03-12T04:33:22.964Z,98648.44
2023-03-12T04:35:54.056Z,98651.38
2023-03-12T04:38:22.718Z,98659.38
2023-03-12T04:41:08.340Z,98668.88
2023-03-12T04:43:38.413Z,98676.81
2023-03-12T04:46:06.539Z,98680.34
2023-03-12T04:48:34.844Z,98677.22
2023-03-12T04:51:02.564Z,98683.41
2023-03-12T04:53:29.970Z,98670.75
2023-03-12T04:55:59.683Z,98676.13
2023-03-12T04:58:28.402Z,98680.97
2023-03-12T05:00:55.766Z,98682.66
2023-03-12T05:03:23.546Z,98686.44
2023-03-12T05:05:51.194Z,98683.22
2023-03-12T05:08:18.856Z,98671.25
2023-03-12T05:10:46.363Z,98680.69
2023-03-12T05:13:17.660Z,98691.34
2023-03-12T05:15:46.448Z,98675.56
2023-03-12T05:18:15.056Z,98678.81
2023-03-12T05:20:42.485Z,98679.69
2023-03-12T05:23:10.341Z,98682.66
2023-03-12T05:25:41.157Z,98682.94
2023-03-12T05:28:09.032Z,98687.03
2023-03-12T05:30:39.827Z,98677.00
2023-03-12T05:33:07.318Z,98687.78
2023-03-12T05:35:34.728Z,98694.53
2023-03-12T05:38:02.824Z,98696.59
2023-03-12T05:40:30.448Z,98692.41
2023-03-12T05:42:57.851Z,98698.88
2023-03-12T05:45:27.122Z,98697.50
2023-03-12T05:47:56.435Z,98699.66
2023-03-12T05:50:24.218Z,98706.72
2023-03-12T05:52:52.497Z,98708.81
2023-03-12T05:55:20.235Z,98702.50
2023-03-12T05:57:47.640Z,98716.47
2023-03-12T06:00:15.673Z,98702.75
2023-03-12T06:02:51.542Z,98706.56
2023-03-12T06:05:19.578Z,98703.75
2023-03-12T06:07:47.137Z,98709.28
2023-03-12T06:10:14.538Z,98704.91
2023-03-12T06:12:41.942Z,98712.66
2023-03-12T06:15:10.034Z,98713.97
2023-03-12T06:17:37.682Z,98705.06
2023-03-12T06:20:05.777Z,98714.84
2023-03-12T06:22:33.256Z,98707.25
2023-03-12T06:25:00.573Z,98706.38
2023-03-12T06:27:29.429Z,98704.19
2023-03-12T06:29:56.872Z,98705.41
2023-03-12T06:32:24.225Z,98706.50
2023-03-12T06:34:51.584Z,98699.88
2023-03-12T06:37:19.375Z,98704.47
2023-03-12T06:39:47.923Z,98703.44
2023-03-12T06:42:15.944Z,98703.31
2023-03-12T06:44:43.658Z,98700.78
2023-03-12T06:47:11.559Z,98709.66
2023-03-12T06:49:40.731Z,98706.63
2023-03-12T06:52:09.645Z,98714.19
2023-03-12T06:54:37.132Z,98703.34
2023-03-12T06:57:05.090Z,98713.97
2023-03-12T06:59:32.950Z,98706.88
2023-03-12T07:02:00.895Z,98707.66
2023-03-12T07:04:28.748Z,98694.00
2023-03-12T07:06:56.146Z,98703.47
2023-03-12T07:09:23.564Z,98703.03
2023-03-12T07:11:51.013Z,98697.28
2023-03-12T07:14:20.425Z,98698.06
2023-03-12T07:16:48.246Z,98691.84
2023-03-12T07:19:15.947Z,98691.31
2023-03-12T07:21:43.218Z,98693.25
2023-03-12T07:24:10.737Z,98689.56
2023-03-12T07:26:38.025Z,98688.56
2023-03-12T07:29:05.483Z,98688.94
2023-03-12T07:31:32.955Z,98680.09
2023-03-12T07:34:03.516Z,98686.22
2023-03-12T07:36:31.131Z,98692.00
2023-03-12T07:38:58.782Z,98689.28
2023-03-12T07:41:26.177Z,98691.34
2023-03-12T07:43:53.509Z,98683.53
2023-03-12T07:46:20.941Z,98680.94
2023-03-12T07:48:48.733Z,98676.25
2023-03-12T07:51:16.099Z,98683.28
2023-03-12T07:53:43.475Z,98674.53
2023-03-12T07:56:10.771Z,98670.28
2023-03-12T07:58:39.510Z,98677.38
2023-03-12T08:01:07.174Z,98674.06
2023-03-12T08:03:34.673Z,98670.16
2023-03-12T08:06:03.670Z,98673.06
2023-03-12T08:08:31.736Z,98677.69
2023-03-12T08:10:59.727Z,98667.84
2023-03-12T08:13:27.124Z,98659.81
2023-03-12T08:15:54.677Z,98655.66
2023-03-12T08:18:22.528Z,98662.75
2023-03-12T08:20:53.836Z,98654.59
2023-03-12T08:23:21.898Z,98656.44
2023-03-12T08:25:49.949Z,98652.34
2023-03-12T08:28:17.701Z,98658.47
2023-03-12T08:30:49.091Z,98660.44
2023-03-12T08:33:16.886Z,98649.41
2023-03-12T08:35:44.319Z,98653.72
2023-03-12T08:38:12.053Z,98656.06
2023-03-12T08:40:39.469Z,98649.38
2023-03-12T08:43:07.953Z,98648.72
2023-03-12T08:45:38.668Z,98646.88
2023-03-12T08:48:06.944Z,98648.94
2023-03-12T08:50:34.406Z,98632.38
2023-03-12T08:53:01.866Z,98642.78
2023-03-12T08:55:31.699Z,98633.63
2023-03-12T08:57:59.172Z,98632.19
2023-03-12T09:00:26.650Z,98632.13
2023-03-12T09:02:54.609Z,98624.81
2023-03-12T09:05:22.124Z,98624.94
2023-03-12T09:07:50.525Z,98622.16
2023-03-12T09:10:18.060Z,98618.09
2023-03-12T09:12:45.538Z,98620.38
2023-03-12T09:15:12.934Z,98632.69
2023-03-12T09:17:40.391Z,98622.63
2023-03-12T09:20:09.244Z,98618.59
2023-03-12T09:22:37.569Z,98622.56
2023-03-12T09:25:06.094Z,98616.44
2023-03-12T09:27:41.632Z,98624.38
2023-03-12T09:30:11.017Z,98616.19
2023-03-12T09:32:38.571Z,98613.47
2023-03-12T09:35:06.902Z,98613.00
2023-03-12T09:37:34.874Z,98619.16
2023-03-12T09:40:02.391Z,98625.16
2023-03-12T09:42:53.269Z,98611.91
2023-03-12T09:45:23.111Z,98612.84
2023-03-12T09:47:54.773Z,98612.97
2023-03-12T09:50:28.357Z,98603.81
2023-03-12T09:52:58.820Z,98601.16
2023-03-12T09:55:27.644Z,98599.38
2023-03-12T09:57:55.933Z,98595.16
2023-03-12T10:00:26.671Z,98597.50
2023-03-12T10:03:11.095Z,98590.69
2023-03-12T10:05:38.435Z,98596.09
2023-03-12T10:08:32.153Z,98618.59
2023-03-12T10:11:09.016Z,98614.88
2023-03-12T10:13:39.131Z,98607.00
2023-03-12T10:16:22.656Z,98601.09
2023-03-12T10:18:50.132Z,98607.94
2023-03-12T10:21:20.125Z,98608.03
2023-03-12T10:24:05.764Z,98612.66
2023-03-12T10:26:44.375Z,98602.00
2023-03-12T10:29:16.495Z,98591.63
2023-03-12T10:32:07.262Z,98598.09
2023-03-12T10:34:43.648Z,98610.84
2023-03-12T10:37:17.768Z,98599.19
2023-03-12T10:39:45.341Z,98617.16
2023-03-12T10:42:18.024Z,98602.78
2023-03-12T10:44:47.130Z,98580.97
2023-03-12T10:47:32.752Z,98601.56
2023-03-12T10:50:15.622Z,98586.38
2023-03-12T10:52:43.694Z,98594.47
2023-03-12T10:55:12.443Z,98593.47
2023-03-12T10:57:41.214Z,98593.97
2023-03-12T11:00:12.652Z,98594.16
2023-03-12T11:02:46.105Z,98575.88
2023-03-12T11:05:42.900Z,98583.84
2023-03-12T11:08:20.424Z,98585.13
2023-03-12T11:10:48.228Z,98591.09
2023-03-12T11:13:29.697Z,98593.53
2023-03-12T11:15:58.368Z,98596.41
2023-03-12T11:18:38.295Z,98582.16
2023-03-12T11:21:09.547Z,98576.91
2023-03-12T11:23:43.442Z,98567.72
2023-03-12T11:26:14.707Z,98570.16
2023-03-12T11:28:44.196Z,98569.41
2023-03-12T11:31:26.069Z,98576.13
2023-03-12T11:33:54.869Z,98589.06
2023-03-12T11:36:48.555Z,98555.44
2023-03-12T11:39:34.672Z,98564.22
2023-03-12T11:42:08.689Z,98572.38
2023-03-12T11:44:54.964Z,98584.72
2023-03-12T11:47:25.432Z,98559.41
2023-03-12T11:49:58.675Z,98569.09
2023-03-12T11:52:48.533Z,98562.00
2023-03-12T11:55:22.948Z,98548.34
2023-03-12T11:57:57.577Z,98549.63
2023-03-12T12:00:44.561Z,98544.16
2023-03-12T12:03:31.491Z,98537.28
2023-03-12T12:06:22.978Z,98548.25
2023-03-12T12:09:14.708Z,98560.94
2023-03-12T12:11:45.670Z,98536.94
2023-03-12T12:14:17.325Z,98536.34
2023-03-12T12:17:02.377Z,98544.66
2023-03-12T12:19:41.753Z,98555.41
2023-03-12T12:22:18.389Z,98550.78
2023-03-12T12:24:56.835Z,98558.94
2023-03-12T12:27:29.309Z,98547.72
2023-03-12T12:30:11.836Z,98545.09
2023-03-12T12:32:45.252Z,98563.75
2023-03-12T12:35:25.711Z,98554.06
2023-03-12T12:37:56.070Z,98547.72
2023-03-12T12:40:30.316Z,98545.22
2023-03-12T12:43:17.819Z,98545.84
2023-03-12T12:45:47.338Z,98552.78
2023-03-12T12:48:38.062Z,98557.94
2023-03-12T12:51:08.768Z,98548.50
2023-03-12T12:53:49.375Z,98540.25
2023-03-12T12:56:34.452Z,98548.09
2023-03-12T12:59:06.204Z,98548.38
2023-03-12T13:01:35.648Z,98554.41
2023-03-12T13:04:06.924Z,98535.19
2023-03-12T13:06:54.205Z,98542.97
2023-03-12T13:09:23.486Z,98543.19
2023-03-12T13:11:52.049Z,98539.72
2023-03-12T13:14:21.038Z,98537.56
2023-03-12T13:16:50.732Z,98552.72
2023-03-12T13:19:19.593Z,98526.84
2023-03-12T13:21:54.543Z,98535.44
2023-03-12T13:24:21.967Z,98537.56
2023-03-12T13:27:09.015Z,98532.75
2023-03-12T13:29:38.504Z,98545.00
2023-03-12T13:32:09.461Z,98541.56
2023-03-12T13:34:46.100Z,98544.44
2023-03-12T13:37:32.308Z,98544.28
2023-03-12T13:40:02.242Z,98544.19
2023-03-12T13:42:40.822Z,98531.47
2023-03-12T13:45:25.347Z,98543.22
2023-03-12T13:47:55.286Z,98539.09
2023-03-12T13:50:22.715Z,98532.28
2023-03-12T13:52:55.535Z,98533.22
2023-03-12T13:55:26.987Z,98525.81
2023-03-12T13:57:59.421Z,98526.50
2023-03-12T14:00:32.101Z,98514.75
2023-03-12T14:03:06.711Z,98517.16
2023-03-12T14:05:44.428Z,98523.56
2023-03-12T14:08:18.204Z,98512.31
2023-03-12T14:11:03.959Z,98545.16
2023-03-12T14:13:34.362Z,98534.69
2023-03-12T14:16:17.037Z,98524.91
2023-03-12T14:18:45.368Z,98529.88
2023-03-12T14:21:15.838Z,98552.59
2023-03-12T14:23:49.807Z,98534.13
2023-03-12T14:26:21.799Z,98528.16
2023-03-12T14:28:51.793Z,98522.69
2023-03-12T14:31:21.780Z,98533.34
2023-03-12T14:33:53.876Z,98525.91
2023-03-12T14:36:23.458Z,98531.03
2023-03-12T14:38:50.845Z,98536.13
2023-03-12T14:41:36.312Z,98553.50
2023-03-12T14:44:18.075Z,98546.72
2023-03-12T14:46:56.028Z,98528.31
2023-03-12T14:49:23.491Z,98545.53
2023-03-12T14:51:51.163Z,98552.53
2023-03-12T14:54:19.798Z,98541.69
2023-03-12T14:56:47.286Z,98541.03
2023-03-12T14:59:22.742Z,98536.03
2023-03-12T15:01:50.275Z,98545.00
2023-03-12T15:04:19.941Z,98537.25
2023-03-12T15:06:47.315Z,98539.97
2023-03-12T15:09:18.319Z,98532.53
2023-03-12T15:11:51.795Z,98551.25
2023-03-12T15:14:19.678Z,98547.66
2023-03-12T15:16:47.122Z,98542.72
2023-03-12T15:19:17.027Z,98534.31
2023-03-12T15:21:45.168Z,98534.41
2023-03-12T15:24:13.799Z,98537.91
2023-03-12T15:26:41.781Z,98533.44
2023-03-12T15:29:16.620Z,98524.72
2023-03-12T15:31:46.446Z,98526.25
2023-03-12T15:34:20.999Z,98514.00
2023-03-12T15:36:49.727Z,98518.72
2023-03-12T15:39:28.393Z,98532.75
2023-03-12T15:41:56.989Z,98522.81
2023-03-12T15:44:26.382Z,98509.91
2023-03-12T15:46:55.271Z,98506.25
2023-03-12T15:49:33.105Z,98499.53
2023-03-12T15:52:00.640Z,98515.78
2023-03-12T15:54:29.194Z,98510.66
2023-03-12T15:57:11.936Z,98494.28
2023-03-12T15:59:39.343Z,98506.00
2023-03-12T16:02:11.493Z,98509.63
2023-03-12T16:04:38.794Z,98504.59
2023-03-12T16:07:10.888Z,98492.50
2023-03-12T16:09:43.679Z,98499.69
2023-03-12T16:12:11.239Z,98488.22
2023-03-12T16:14:38.718Z,98477.75
2023-03-12T16:17:11.194Z,98476.69
2023-03-12T16:19:38.615Z,98473.94
2023-03-12T16:22:06.066Z,98490.56
2023-03-12T16:24:33.502Z,98484.00
2023-03-12T16:27:01.547Z,98484.38
2023-03-12T16:29:37.421Z,98472.50
2023-03-12T16:32:11.380Z,98478.59
2023-03-12T16:34:38.806Z,98465.28
2023-03-12T16:37:10.759Z,98472.25
2023-03-12T16:39:38.158Z,98478.06
2023-03-12T16:42:13.327Z,98481.56
2023-03-12T16:44:41.338Z,98471.19
2023-03-12T16:47:12.303Z,98471.63
2023-03-12T16:49:39.868Z,98469.53
2023-03-12T16:52:28.711Z,98476.63
2023-03-12T16:54:56.315Z,98473.91
2023-03-12T16:57:35.544Z,98467.13
2023-03-12T17:00:08.133Z,98475.38
2023-03-12T17:02:40.434Z,98480.94
2023-03-12T17:05:08.026Z,98484.38
2023-03-12T17:07:35.986Z,98482.47
2023-03-12T17:10:03.278Z,98468.91
2023-03-12T17:12:32.101Z,98475.38
2023-03-12T17:15:00.731Z,98469.44
2023-03-12T17:17:28.937Z,98466.94
2023-03-12T17:19:56.863Z,98467.28
2023-03-12T17:22:25.239Z,98460.72
2023-03-12T17:24:52.645Z,98472.59
2023-03-12T17:27:20.402Z,98466.09
2023-03-12T17:29:47.826Z,98461.63
2023-03-12T17:32:15.091Z,98466.78
2023-03-12T17:34:42.639Z,98480.06
2023-03-12T17:37:10.160Z,98471.50
2023-03-12T17:39:37.398Z,98460.72
2023-03-12T17:42:04.885Z,98472.44
2023-03-12T17:44:34.904Z,98466.66
2023-03-12T17:47:02.527Z,98459.81
2023-03-12T17:49:30.253Z,98451.88
2023-03-12T17:51:57.757Z,98443.94
2023-03-12T17:54:25.170Z,98456.06
2023-03-12T17:56:52.484Z,98432.47
2023-03-12T17:59:19.764Z,98435.84
2023-03-12T18:01:47.113Z,98427.72
2023-03-12T18:04:16.073Z,98419.59
2023-03-12T18:06:43.345Z,98430.38
2023-03-12T18:09:10.730Z,98435.13
2023-03-12T18:11:38.122Z,98421.38
2023-03-12T18:14:05.655Z,98425.84
2023-03-12T18:16:33.191Z,98440.22
2023-03-12T18:19:00.553Z,98431.31
2023-03-12T18:21:27.848Z,98433.19
2023-03-12T18:23:57.467Z,98426.28
2023-03-12T18:26:26.780Z,98423.03
2023-03-12T18:28:55.217Z,98425.00
2023-03-12T18:31:22.605Z,98409.78
2023-03-12T18:33:49.861Z,98409.00
2023-03-12T18:36:17.274Z,98420.09
2023-03-12T18:38:44.803Z,98417.44
2023-03-12T18:41:13.233Z,98418.34
2023-03-12T18:43:41.235Z,98405.34
2023-03-12T18:46:09.155Z,98401.63
2023-03-12T18:48:36.547Z,98383.56
2023-03-12T18:51:03.927Z,98380.44
2023-03-12T18:53:33.496Z,98360.56
2023-03-12T18:56:00.871Z,98368.88
2023-03-12T18:58:28.473Z,98385.38
2023-03-12T19:00:56.534Z,98367.75
2023-03-12T19:03:24.290Z,98362.16
2023-03-12T19:06:05.515Z,98364.66
2023-03-12T19:08:32.906Z,98360.78
2023-03-12T19:11:00.186Z,98360.34
2023-03-12T19:13:27.477Z,98367.56
2023-03-12T19:15:59.797Z,98368.88
2023-03-12T19:18:27.535Z,98389.94
2023-03-12T19:20:55.295Z,98395.25
2023-03-12T19:23:23.640Z,98384.41
2023-03-12T19:25:50.898Z,98381.81
2023-03-12T19:28:18.214Z,98376.28
2023-03-12T19:30:45.599Z,98386.31
2023-03-12T19:33:13.152Z,98387.94
2023-03-12T19:35:41.226Z,98376.19
2023-03-12T19:38:09.127Z,98364.88
2023-03-12T19:40:36.536Z,98361.50
2023-03-12T19:43:03.990Z,98360.28
2023-03-12T19:45:31.403Z,98370.56
2023-03-12T19:47:58.726Z,98367.63
2023-03-12T19:50:26.182Z,98356.25
2023-03-12T19:52:53.564Z,98350.06
2023-03-12T19:55:20.945Z,98349.38
2023-03-12T19:57:48.293Z,98340.03
2023-03-12T20:00:15.997Z,98332.47
2023-03-12T20:02:43.418Z,98341.28
2023-03-12T20:05:10.825Z,98330.28
2023-03-12T20:07:38.302Z,98332.91
2023-03-12T20:10:06.167Z,98320.22
2023-03-12T20:12:33.465Z,98318.59
2023-03-12T20:15:00.900Z,98328.59
2023-03-12T20:17:28.215Z,98323.75
2023-03-12T20:19:56.303Z,98332.69
2023-03-12T20:22:28.081Z,98331.19
2023-03-12T20:24:55.592Z,98331.06
2023-03-12T20:27:22.951Z,98331.22
2023-03-12T20:29:51.159Z,98328.47
2023-03-12T20:32:21.691Z,98334.38
2023-03-12T20:34:49.016Z,98334.63
2023-03-12T20:37:16.257Z,98336.72
2023-03-12T20:39:43.689Z,98331.78
2023-03-12T20:42:10.874Z,98335.50
2023-03-12T20:44:38.173Z,98335.00
2023-03-12T20:47:05.555Z,98326.00
2023-03-12T20:49:32.923Z,98336.06
2023-03-12T20:52:00.524Z,98318.59
2023-03-12T20:54:27.986Z,98328.53
2023-03-12T20:56:55.300Z,98331.78
2023-03-12T20:59:22.537Z,98335.34
2023-03-12T21:01:49.801Z,98331.53
2023-03-12T21:04:17.132Z,98338.00
2023-03-12T21:06:45.414Z,98335.41
2023-03-12T21:09:13.750Z,98330.63
2023-03-12T21:11:41.251Z,98327.59
2023-03-12T21:14:08.747Z,98329.44
2023-03-12T21:16:36.992Z,98323.66
2023-03-12T21:19:04.427Z,98320.13
2023-03-12T21:21:32.405Z,98312.84
2023-03-12T21:24:00.831Z,98299.63
2023-03-12T21:26:28.172Z,98300.34
2023-03-12T21:28:55.523Z,98303.03
2023-03-12T21:31:23.093Z,98314.88
2023-03-12T21:33:50.438Z,98306.22
2023-03-12T21:36:17.863Z,98307.44
2023-03-12T21:38:45.147Z,98295.00
2023-03-12T21:41:13.762Z,98284.75
2023-03-12T21:43:41.145Z,98282.50
2023-03-12T21:46:09.815Z,98292.47
2023-03-12T21:48:37.498Z,98274.81
2023-03-12T21:51:06.164Z,98286.81
2023-03-12T21:53:33.664Z,98276.25
2023-03-12T21:56:02.523Z,98276.03
2023-03-12T21:58:30.788Z,98285.38
2023-03-12T22:01:11.671Z,98288.66
2023-03-12T22:03:40.127Z,98286.38
2023-03-12T22:06:08.108Z,98295.38
2023-03-12T22:08:35.978Z,98282.50
2023-03-12T22:11:03.896Z,98275.78
2023-03-12T22:13:31.373Z,98260.88
2023-03-12T22:16:00.067Z,98258.53
2023-03-12T22:18:28.098Z,98255.34
2023-03-12T22:20:56.419Z,98261.25
2023-03-12T22:23:24.244Z,98260.56
2023-03-12T22:25:51.981Z,98257.56
2023-03-12T22:28:19.681Z,98259.31
2023-03-12T22:30:47.462Z,98267.31
2023-03-12T22:33:14.989Z,98255.06
2023-03-12T22:35:46.373Z,98263.66
2023-03-12T22:38:13.725Z,98259.78
2023-03-12T22:40:41.322Z,98261.41
2023-03-12T22:43:08.624Z,98258.72
2023-03-12T22:45:35.965Z,98252.66
2023-03-12T22:48:03.403Z,98237.31
2023-03-12T22:50:30.881Z,98236.31
2023-03-12T22:52:58.585Z,98239.00
2023-03-12T22:55:25.890Z,98240.19
2023-03-12T22:57:53.340Z,98224.09
2023-03-12T23:00:24.269Z,98236.69
2023-03-12T23:02:51.557Z,98237.50
2023-03-12T23:05:18.851Z,98228.06
2023-03-12T23:07:46.277Z,98214.94
2023-03-12T23:10:13.579Z,98235.06
2023-03-12T23:12:40.904Z,98218.41
2023-03-12T23:15:08.662Z,98226.66
2023-03-12T23:17:36.065Z,98220.75
2023-03-12T23:20:04.606Z,98217.31
2023-03-12T23:22:33.214Z,98208.06
2023-03-12T23:25:00.566Z,98218.69
2023-03-12T23:27:28.905Z,98210.50
2023-03-12T23:29:56.176Z,98220.19
2023-03-12T23:32:23.531Z,98193.56
2023-03-12T23:34:50.844Z,98203.81
2023-03-12T23:37:18.366Z,98201.44
2023-03-12T23:39:54.564Z,98199.19
2023-03-12T23:42:22.396Z,98188.28
2023-03-12T23:44:49.750Z,98196.25
2023-03-12T23:47:17.062Z,98198.38
2023-03-12T23:49:44.240Z,98202.13
2023-03-12T23:52:11.489Z,98202.09
2023-03-12T23:54:38.925Z,98197.13
2023-03-12T23:57:06.240Z,98205.56
2023-03-12T23:59:33.579Z,98203.97
